sensor_id;sensor_type;location;lat;lon;timestamp;pressure;altitude;pressure_sealevel;temperature;humidity
55032;BME280;40928;51.076;7.950;2022-12-07T00:01:14;96987.25;;;1.78;100.00
55032;BME280;40928;51.076;7.950;2022-12-07T00:03:41;96985.22;;;1.80;100.00
55032;BME280;40928;51.076;7.950;2022-12-07T00:06:09;96979.78;;;1.82;100.00
55032;BME280;40928;51.076;7.950;2022-12-07T00:08:35;96983.41;;;1.81;100.00
55032;BME280;40928;51.076;7.950;2022-12-07T00:11:05;96987.25;;;1.78;100.00
55032;BME280;40928;51.076;7.950;2022-12-07T00:13:32;96982.59;;;1.80;100.00
55032;BME280;40928;51.076;7.950;2022-12-07T00:16:03;96983.41;;;1.81;100.00
55032;BME280;40928;51.076;7.950;2022-12-07T00:18:28;96986.50;;;1.85;100.00
55032;BME280;40928;51.076;7.950;2022-12-07T00:21:20;96981.06;;;1.86;100.00
55032;BME280;40928;51.076;7.950;2022-12-07T00:23:45;96986.31;;;1.86;100.00
55032;BME280;40928;51.076;7.950;2022-12-07T00:26:13;96981.06;;;1.86;100.00
55032;BME280;40928;51.076;7.950;2022-12-07T00:28:39;96979.66;;;1.90;100.00
55032;BME280;40928;51.076;7.950;2022-12-07T00:31:10;96965.50;;;1.91;100.00
55032;BME280;40928;51.076;7.950;2022-12-07T00:33:36;96963.88;;;1.90;100.00
55032;BME280;40928;51.076;7.950;2022-12-07T00:36:06;96970.78;;;1.91;100.00
55032;BME280;40928;51.076;7.950;2022-12-07T00:38:36;96963.31;;;1.95;100.00
55032;BME280;40928;51.076;7.950;2022-12-07T00:41:08;96959.69;;;1.96;100.00
55032;BME280;40928;51.076;7.950;2022-12-07T00:43:34;96952.59;;;1.96;100.00
55032;BME280;40928;51.076;7.950;2022-12-07T00:46:00;96950.34;;;1.93;100.00
55032;BME280;40928;51.076;7.950;2022-12-07T00:48:26;96950.41;;;2.00;100.00
55032;BME280;40928;51.076;7.950;2022-12-07T00:50:52;96947.41;;;2.03;100.00
55032;BME280;40928;51.076;7.950;2022-12-07T00:53:20;96951.41;;;1.99;100.00
55032;BME280;40928;51.076;7.950;2022-12-07T00:55:46;96945.91;;;1.94;100.00
55032;BME280;40928;51.076;7.950;2022-12-07T00:58:12;96949.97;;;1.96;100.00
55032;BME280;40928;51.076;7.950;2022-12-07T01:00:40;96940.16;;;2.05;100.00
55032;BME280;40928;51.076;7.950;2022-12-07T01:03:07;96941.50;;;2.01;100.00
55032;BME280;40928;51.076;7.950;2022-12-07T01:05:33;96954.47;;;2.03;100.00
55032;BME280;40928;51.076;7.950;2022-12-07T01:07:59;96942.06;;;1.96;100.00
55032;BME280;40928;51.076;7.950;2022-12-07T01:10:25;96945.00;;;1.87;100.00
55032;BME280;40928;51.076;7.950;2022-12-07T01:12:51;96943.63;;;1.91;100.00
55032;BME280;40928;51.076;7.950;2022-12-07T01:15:16;96951.16;;;1.94;100.00
55032;BME280;40928;51.076;7.950;2022-12-07T01:17:42;96951.97;;;1.94;100.00
55032;BME280;40928;51.076;7.950;2022-12-07T01:20:08;96957.69;;;1.98;100.00
55032;BME280;40928;51.076;7.950;2022-12-07T01:22:38;96945.72;;;1.95;100.00
55032;BME280;40928;51.076;7.950;2022-12-07T01:25:05;96951.97;;;1.94;100.00
55032;BME280;40928;51.076;7.950;2022-12-07T01:27:31;96950.34;;;1.93;100.00
55032;BME280;40928;51.076;7.950;2022-12-07T01:29:57;96951.34;;;1.92;100.00
55032;BME280;40928;51.076;7.950;2022-12-07T01:32:22;96945.91;;;1.94;100.00
55032;BME280;40928;51.076;7.950;2022-12-07T01:34:48;96946.13;;;1.99;100.00
55032;BME280;40928;51.076;7.950;2022-12-07T01:37:14;96942.72;;;1.98;100.00
55032;BME280;40928;51.076;7.950;2022-12-07T01:39:39;96952.59;;;1.96;100.00
55032;BME280;40928;51.076;7.950;2022-12-07T01:42:10;96951.59;;;1.97;100.00
55032;BME280;40928;51.076;7.950;2022-12-07T01:47:56;96949.03;;;2.04;100.00
55032;BME280;40928;51.076;7.950;2022-12-07T01:50:25;96947.03;;;2.06;100.00
55032;BME280;40928;51.076;7.950;2022-12-07T01:52:53;96948.22;;;2.04;100.00
55032;BME280;40928;51.076;7.950;2022-12-07T01:55:20;96939.72;;;2.02;100.00
55032;BME280;40928;51.076;7.950;2022-12-07T01:57:49;96935.81;;;1.97;100.00
55032;BME280;40928;51.076;7.950;2022-12-07T02:00:16;96932.81;;;2.01;100.00
55032;BME280;40928;51.076;7.950;2022-12-07T02:05:20;96936.25;;;2.01;100.00
55032;BME280;40928;51.076;7.950;2022-12-07T02:07:47;96929.78;;;2.04;100.00
55032;BME280;40928;51.076;7.950;2022-12-07T02:10:35;96928.41;;;2.08;100.00
55032;BME280;40928;51.076;7.950;2022-12-07T02:13:11;96930.03;;;2.09;100.00
55032;BME280;40928;51.076;7.950;2022-12-07T02:18:31;96932.31;;;2.12;100.00
55032;BME280;40928;51.076;7.950;2022-12-07T02:21:03;96935.56;;;2.14;100.00
55032;BME280;40928;51.076;7.950;2022-12-07T02:29:35;96927.66;;;2.14;100.00
55032;BME280;40928;51.076;7.950;2022-12-07T02:32:15;96918.75;;;2.15;100.00
55032;BME280;40928;51.076;7.950;2022-12-07T02:34:50;96923.56;;;2.11;100.00
55032;BME280;40928;51.076;7.950;2022-12-07T02:37:28;96918.13;;;2.13;100.00
55032;BME280;40928;51.076;7.950;2022-12-07T02:42:33;96915.31;;;2.15;100.00
55032;BME280;40928;51.076;7.950;2022-12-07T02:45:02;96913.31;;;2.17;100.00
55032;BME280;40928;51.076;7.950;2022-12-07T02:47:29;96906.13;;;2.10;100.00
55032;BME280;40928;51.076;7.950;2022-12-07T02:49:56;96916.13;;;2.15;100.00
55032;BME280;40928;51.076;7.950;2022-12-07T02:52:22;96919.19;;;2.19;100.00
55032;BME280;40928;51.076;7.950;2022-12-07T02:54:47;96910.28;;;2.20;100.00
55032;BME280;40928;51.076;7.950;2022-12-07T03:02:31;96908.88;;;2.17;100.00
55032;BME280;40928;51.076;7.950;2022-12-07T03:15:32;96900.31;;;2.15;100.00
55032;BME280;40928;51.076;7.950;2022-12-07T03:18:00;96906.41;;;2.16;100.00
55032;BME280;40928;51.076;7.950;2022-12-07T03:20:29;96908.88;;;2.17;100.00
55032;BME280;40928;51.076;7.950;2022-12-07T03:22:56;96900.97;;;2.17;100.00
55032;BME280;40928;51.076;7.950;2022-12-07T03:25:23;96909.03;;;2.16;100.00
55032;BME280;40928;51.076;7.950;2022-12-07T03:27:53;96900.97;;;2.17;100.00
55032;BME280;40928;51.076;7.950;2022-12-07T03:30:39;96903.59;;;2.17;100.00
55032;BME280;40928;51.076;7.950;2022-12-07T03:33:19;96895.84;;;2.16;100.00
55032;BME280;40928;51.076;7.950;2022-12-07T03:35:59;96903.59;;;2.17;100.00
55032;BME280;40928;51.076;7.950;2022-12-07T03:38:35;96908.03;;;2.17;100.00
55032;BME280;40928;51.076;7.950;2022-12-07T03:41:13;96912.94;;;2.20;100.00
55032;BME280;40928;51.076;7.950;2022-12-07T03:43:40;96904.59;;;2.16;100.00
55032;BME280;40928;51.076;7.950;2022-12-07T03:46:42;96905.34;;;2.10;100.00
55032;BME280;40928;51.076;7.950;2022-12-07T03:49:18;96902.44;;;2.05;100.00
55032;BME280;40928;51.076;7.950;2022-12-07T03:54:57;96905.97;;;2.12;100.00
55032;BME280;40928;51.076;7.950;2022-12-07T03:57:26;96901.50;;;2.12;100.00
55032;BME280;40928;51.076;7.950;2022-12-07T03:59:54;96898.16;;;2.04;100.00
55032;BME280;40928;51.076;7.950;2022-12-07T04:02:21;96902.28;;;2.06;100.00
55032;BME280;40928;51.076;7.950;2022-12-07T04:04:47;96902.44;;;2.05;100.00
55032;BME280;40928;51.076;7.950;2022-12-07T04:07:13;96902.63;;;2.03;100.00
55032;BME280;40928;51.076;7.950;2022-12-07T04:09:38;96900.25;;;2.08;100.00
55032;BME280;40928;51.076;7.950;2022-12-07T04:12:04;96905.34;;;2.10;100.00
55032;BME280;40928;51.076;7.950;2022-12-07T04:14:30;96898.88;;;2.12;100.00
55032;BME280;40928;51.076;7.950;2022-12-07T04:16:57;96899.50;;;2.15;100.00
55032;BME280;40928;51.076;7.950;2022-12-07T04:19:25;96900.31;;;2.15;100.00
55032;BME280;40928;51.076;7.950;2022-12-07T04:21:51;96896.28;;;2.19;100.00
55032;BME280;40928;51.076;7.950;2022-12-07T04:24:16;96900.56;;;2.20;100.00
55032;BME280;40928;51.076;7.950;2022-12-07T04:26:43;96902.56;;;2.18;100.00
55032;BME280;40928;51.076;7.950;2022-12-07T04:29:09;96899.75;;;2.20;100.00
55032;BME280;40928;51.076;7.950;2022-12-07T04:31:36;96906.09;;;2.25;100.00
55032;BME280;40928;51.076;7.950;2022-12-07T04:34:02;96905.66;;;2.22;100.00
55032;BME280;40928;51.076;7.950;2022-12-07T04:36:28;96912.72;;;2.21;100.00
55032;BME280;40928;51.076;7.950;2022-12-07T04:38:54;96916.00;;;2.23;100.00
55032;BME280;40928;51.076;7.950;2022-12-07T04:41:21;96917.63;;;2.24;100.00
55032;BME280;40928;51.076;7.950;2022-12-07T04:44:02;96916.81;;;2.24;100.00
55032;BME280;40928;51.076;7.950;2022-12-07T04:46:30;96908.72;;;2.25;100.00
55032;BME280;40928;51.076;7.950;2022-12-07T04:48:56;96925.16;;;2.27;100.00
55032;BME280;40928;51.076;7.950;2022-12-07T04:51:25;96916.00;;;2.23;100.00
55032;BME280;40928;51.076;7.950;2022-12-07T04:53:50;96920.63;;;2.21;100.00
55032;BME280;40928;51.076;7.950;2022-12-07T04:56:17;96910.09;;;2.21;100.00
55032;BME280;40928;51.076;7.950;2022-12-07T04:58:44;96901.56;;;2.19;100.00
55032;BME280;40928;51.076;7.950;2022-12-07T05:01:11;96903.19;;;2.20;100.00
55032;BME280;40928;51.076;7.950;2022-12-07T05:03:37;96907.28;;;2.23;100.00
55032;BME280;40928;51.076;7.950;2022-12-07T05:06:03;96902.38;;;2.20;100.00
55032;BME280;40928;51.076;7.950;2022-12-07T05:08:29;96901.19;;;2.22;100.00
55032;BME280;40928;51.076;7.950;2022-12-07T05:10:55;96896.56;;;2.24;100.00
55032;BME280;40928;51.076;7.950;2022-12-07T05:13:20;96906.09;;;2.25;100.00
55032;BME280;40928;51.076;7.950;2022-12-07T05:15:49;96902.81;;;2.23;100.00
55032;BME280;40928;51.076;7.950;2022-12-07T05:18:15;96899.75;;;2.20;100.00
55032;BME280;40928;51.076;7.950;2022-12-07T05:20:41;96901.56;;;2.19;100.00
55032;BME280;40928;51.076;7.950;2022-12-07T05:23:07;96897.06;;;2.13;100.00
55032;BME280;40928;51.076;7.950;2022-12-07T05:25:33;96903.34;;;2.12;100.00
55032;BME280;40928;51.076;7.950;2022-12-07T05:27:58;96890.16;;;2.12;100.00
55032;BME280;40928;51.076;7.950;2022-12-07T05:30:25;96889.31;;;2.11;100.00
55032;BME280;40928;51.076;7.950;2022-12-07T05:32:51;96891.97;;;2.11;100.00
55032;BME280;40928;51.076;7.950;2022-12-07T05:35:17;96897.44;;;2.10;100.00
55032;BME280;40928;51.076;7.950;2022-12-07T05:37:44;96899.69;;;2.13;100.00
55032;BME280;40928;51.076;7.950;2022-12-07T05:40:10;96893.78;;;2.11;100.00
55032;BME280;40928;51.076;7.950;2022-12-07T05:42:36;96897.06;;;2.13;100.00
55032;BME280;40928;51.076;7.950;2022-12-07T05:45:02;96899.50;;;2.15;100.00
55032;BME280;40928;51.076;7.950;2022-12-07T05:47:29;96904.97;;;2.13;100.00
55032;BME280;40928;51.076;7.950;2022-12-07T05:49:54;96899.88;;;2.11;100.00
55032;BME280;40928;51.076;7.950;2022-12-07T05:52:20;96896.22;;;2.12;100.00
55032;BME280;40928;51.076;7.950;2022-12-07T05:54:45;96896.06;;;2.14;100.00
55032;BME280;40928;51.076;7.950;2022-12-07T05:57:11;96889.25;;;2.05;100.00
55032;BME280;40928;51.076;7.950;2022-12-07T05:59:36;96892.16;;;2.10;100.00
55032;BME280;40928;51.076;7.950;2022-12-07T06:02:06;96898.88;;;2.12;100.00
55032;BME280;40928;51.076;7.950;2022-12-07T06:04:37;96898.69;;;2.14;100.00
55032;BME280;40928;51.076;7.950;2022-12-07T06:07:04;96891.78;;;2.13;100.00
55032;BME280;40928;51.076;7.950;2022-12-07T06:09:30;96891.78;;;2.13;100.00
55032;BME280;40928;51.076;7.950;2022-12-07T06:11:56;96895.44;;;2.12;100.00
55032;BME280;40928;51.076;7.950;2022-12-07T06:14:40;96896.63;;;2.09;100.00
55032;BME280;40928;51.076;7.950;2022-12-07T06:17:06;96894.59;;;2.11;100.00
55032;BME280;40928;51.076;7.950;2022-12-07T06:19:31;96900.50;;;2.13;100.00
55032;BME280;40928;51.076;7.950;2022-12-07T06:21:57;96906.59;;;2.14;100.00
55032;BME280;40928;51.076;7.950;2022-12-07T06:24:23;96909.41;;;2.12;100.00
55032;BME280;40928;51.076;7.950;2022-12-07T06:26:49;96906.78;;;2.12;100.00
55032;BME280;40928;51.076;7.950;2022-12-07T06:29:17;96909.59;;;2.11;100.00
55032;BME280;40928;51.076;7.950;2022-12-07T06:31:43;96911.34;;;2.04;100.00
55032;BME280;40928;51.076;7.950;2022-12-07T06:34:15;96908.28;;;2.00;100.00
55032;BME280;40928;51.076;7.950;2022-12-07T06:36:41;96910.47;;;1.96;100.00
55032;BME280;40928;51.076;7.950;2022-12-07T06:39:07;96913.75;;;1.98;100.00
55032;BME280;40928;51.076;7.950;2022-12-07T06:41:37;96914.53;;;1.99;100.00
55032;BME280;40928;51.076;7.950;2022-12-07T06:44:05;96909.47;;;1.97;100.00
55032;BME280;40928;51.076;7.950;2022-12-07T06:46:31;96907.63;;;1.98;100.00
55032;BME280;40928;51.076;7.950;2022-12-07T06:48:57;96910.09;;;2.00;100.00
55032;BME280;40928;51.076;7.950;2022-12-07T06:51:22;96910.09;;;2.00;100.00
55032;BME280;40928;51.076;7.950;2022-12-07T06:53:48;96915.59;;;2.05;100.00
55032;BME280;40928;51.076;7.950;2022-12-07T06:56:14;96914.59;;;2.06;100.00
55032;BME280;40928;51.076;7.950;2022-12-07T06:58:40;96916.06;;;2.08;100.00
55032;BME280;40928;51.076;7.950;2022-12-07T07:01:13;96918.69;;;2.08;100.00
55032;BME280;40928;51.076;7.950;2022-12-07T07:03:42;96920.34;;;2.09;100.00
55032;BME280;40928;51.076;7.950;2022-12-07T07:06:08;96924.13;;;2.07;100.00
55032;BME280;40928;51.076;7.950;2022-12-07T07:08:35;96925.41;;;2.11;100.00
55032;BME280;40928;51.076;7.950;2022-12-07T07:11:00;96920.94;;;2.11;100.00
55032;BME280;40928;51.076;7.950;2022-12-07T07:13:26;96929.66;;;2.12;100.00
55032;BME280;40928;51.076;7.950;2022-12-07T07:15:52;96917.31;;;2.12;100.00
55032;BME280;40928;51.076;7.950;2022-12-07T07:18:17;96919.50;;;2.09;100.00
55032;BME280;40928;51.076;7.950;2022-12-07T07:20:43;96924.56;;;2.10;100.00
55032;BME280;40928;51.076;7.950;2022-12-07T07:23:08;96925.22;;;2.12;100.00
55032;BME280;40928;51.076;7.950;2022-12-07T07:25:34;96918.75;;;2.15;100.00
55032;BME280;40928;51.076;7.950;2022-12-07T07:28:00;96916.50;;;2.12;100.00
55032;BME280;40928;51.076;7.950;2022-12-07T07:30:26;96911.88;;;2.14;100.00
55032;BME280;40928;51.076;7.950;2022-12-07T07:32:51;96919.50;;;2.09;100.00
55032;BME280;40928;51.076;7.950;2022-12-07T07:35:20;96907.97;;;2.10;100.00
55032;BME280;40928;51.076;7.950;2022-12-07T07:37:46;96916.13;;;2.15;100.00
55032;BME280;40928;51.076;7.950;2022-12-07T07:40:11;96916.13;;;2.15;100.00
55032;BME280;40928;51.076;7.950;2022-12-07T07:42:37;96914.31;;;2.16;100.00
55032;BME280;40928;51.076;7.950;2022-12-07T07:45:03;96919.41;;;2.17;100.00
55032;BME280;40928;51.076;7.950;2022-12-07T07:47:29;96909.66;;;2.18;100.00
55032;BME280;40928;51.076;7.950;2022-12-07T07:49:55;96919.84;;;2.21;100.00
55032;BME280;40928;51.076;7.950;2022-12-07T07:52:20;96918.84;;;2.22;100.00
55032;BME280;40928;51.076;7.950;2022-12-07T07:54:45;96927.31;;;2.17;100.00
55032;BME280;40928;51.076;7.950;2022-12-07T07:57:11;96916.13;;;2.15;100.00
55032;BME280;40928;51.076;7.950;2022-12-07T07:59:36;96919.78;;;2.14;100.00
55032;BME280;40928;51.076;7.950;2022-12-07T08:02:02;96926.84;;;2.13;100.00
55032;BME280;40928;51.076;7.950;2022-12-07T08:04:27;96923.34;;;2.06;100.00
55032;BME280;40928;51.076;7.950;2022-12-07T08:06:53;96928.59;;;2.06;100.00
55032;BME280;40928;51.076;7.950;2022-12-07T08:09:18;96934.31;;;2.10;100.00
55032;BME280;40928;51.076;7.950;2022-12-07T08:11:44;96927.03;;;2.12;100.00
55032;BME280;40928;51.076;7.950;2022-12-07T08:14:11;96932.47;;;2.10;100.00
55032;BME280;40928;51.076;7.950;2022-12-07T08:16:37;96937.75;;;2.10;100.00
55032;BME280;40928;51.076;7.950;2022-12-07T08:19:04;96937.94;;;2.09;100.00
55032;BME280;40928;51.076;7.950;2022-12-07T08:21:30;96936.50;;;2.06;100.00
55032;BME280;40928;51.076;7.950;2022-12-07T08:23:57;96935.31;;;2.09;100.00
55032;BME280;40928;51.076;7.950;2022-12-07T08:26:22;96945.66;;;2.10;100.00
55032;BME280;40928;51.076;7.950;2022-12-07T08:28:48;96942.47;;;2.15;100.00
55032;BME280;40928;51.076;7.950;2022-12-07T08:31:16;96940.28;;;2.19;100.00
55032;BME280;40928;51.076;7.950;2022-12-07T08:33:43;96940.66;;;2.16;100.00
55032;BME280;40928;51.076;7.950;2022-12-07T08:36:11;96940.84;;;2.14;100.00
55032;BME280;40928;51.076;7.950;2022-12-07T08:38:38;96949.81;;;2.20;100.00
55032;BME280;40928;51.076;7.950;2022-12-07T08:41:05;96951.63;;;2.19;100.00
55032;BME280;40928;51.076;7.950;2022-12-07T08:43:31;96952.25;;;2.21;100.00
55032;BME280;40928;51.076;7.950;2022-12-07T08:48:25;96951.25;;;2.22;100.00
55032;BME280;40928;51.076;7.950;2022-12-07T08:50:51;96951.09;;;2.24;100.00
55032;BME280;40928;51.076;7.950;2022-12-07T08:53:17;96949.88;;;2.26;100.00
55032;BME280;40928;51.076;7.950;2022-12-07T08:55:44;96948.63;;;2.22;100.00
55032;BME280;40928;51.076;7.950;2022-12-07T08:58:11;96946.34;;;2.19;100.00
55032;BME280;40928;51.076;7.950;2022-12-07T09:00:36;96943.78;;;2.26;100.00
55032;BME280;40928;51.076;7.950;2022-12-07T09:03:02;96949.50;;;2.30;100.00
55032;BME280;40928;51.076;7.950;2022-12-07T09:05:27;96948.09;;;2.34;100.00
55032;BME280;40928;51.076;7.950;2022-12-07T09:07:56;96949.94;;;2.33;100.00
55032;BME280;40928;51.076;7.950;2022-12-07T09:10:22;96954.41;;;2.33;100.00
55032;BME280;40928;51.076;7.950;2022-12-07T09:12:48;96953.38;;;2.34;100.00
55032;BME280;40928;51.076;7.950;2022-12-07T09:15:14;96955.88;;;2.20;100.00
55032;BME280;40928;51.076;7.950;2022-12-07T09:17:40;96946.75;;;2.16;100.00
55032;BME280;40928;51.076;7.950;2022-12-07T09:20:06;96946.91;;;2.15;100.00
55032;BME280;40928;51.076;7.950;2022-12-07T09:22:32;96947.91;;;2.13;100.00
55032;BME280;40928;51.076;7.950;2022-12-07T09:24:59;96948.13;;;2.12;100.00
55032;BME280;40928;51.076;7.950;2022-12-07T09:27:25;96949.38;;;2.16;100.00
55032;BME280;40928;51.076;7.950;2022-12-07T09:29:51;96941.06;;;2.19;100.00
55032;BME280;40928;51.076;7.950;2022-12-07T09:32:17;96951.25;;;2.22;100.00
55032;BME280;40928;51.076;7.950;2022-12-07T09:34:43;96949.03;;;2.26;100.00
55032;BME280;40928;51.076;7.950;2022-12-07T09:37:08;96950.25;;;2.23;100.00
55032;BME280;40928;51.076;7.950;2022-12-07T09:39:34;96953.66;;;2.17;100.00
55032;BME280;40928;51.076;7.950;2022-12-07T09:42:04;96945.91;;;2.16;100.00
55032;BME280;40928;51.076;7.950;2022-12-07T09:44:30;96949.81;;;2.20;100.00
55032;BME280;40928;51.076;7.950;2022-12-07T09:46:55;96952.44;;;2.20;100.00
55032;BME280;40928;51.076;7.950;2022-12-07T09:49:24;96949.13;;;2.11;100.00
55032;BME280;40928;51.076;7.950;2022-12-07T09:54:30;96947.53;;;2.17;100.00
55032;BME280;40928;51.076;7.950;2022-12-07T09:56:56;96946.81;;;2.23;100.00
55032;BME280;40928;51.076;7.950;2022-12-07T09:59:21;96944.25;;;2.30;100.00
55032;BME280;40928;51.076;7.950;2022-12-07T10:01:49;96946.50;;;2.33;100.00
55032;BME280;40928;51.076;7.950;2022-12-07T10:04:17;96944.47;;;2.35;100.00
55032;BME280;40928;51.076;7.950;2022-12-07T10:06:44;96937.41;;;2.35;100.00
55032;BME280;40928;51.076;7.950;2022-12-07T10:09:12;96942.66;;;2.35;100.00
55032;BME280;40928;51.076;7.950;2022-12-07T10:12:07;96939.13;;;2.28;100.00
55032;BME280;40928;51.076;7.950;2022-12-07T10:14:35;96935.69;;;2.27;100.00
55032;BME280;40928;51.076;7.950;2022-12-07T10:17:01;96939.34;;;2.26;100.00
55032;BME280;40928;51.076;7.950;2022-12-07T10:19:31;96933.69;;;2.30;100.00
55032;BME280;40928;51.076;7.950;2022-12-07T10:22:13;96936.78;;;2.33;100.00
55032;BME280;40928;51.076;7.950;2022-12-07T10:24:41;96929.13;;;2.38;100.00
55032;BME280;40928;51.076;7.950;2022-12-07T10:27:31;96923.28;;;2.43;100.00
55032;BME280;40928;51.076;7.950;2022-12-07T10:29:58;96924.13;;;2.50;100.00
55032;BME280;40928;51.076;7.950;2022-12-07T10:32:34;96922.59;;;2.56;100.00
55032;BME280;40928;51.076;7.950;2022-12-07T10:35:30;96920.38;;;2.59;100.00
55032;BME280;40928;51.076;7.950;2022-12-07T10:37:58;96913.66;;;2.57;100.00
55032;BME280;40928;51.076;7.950;2022-12-07T10:40:31;96912.41;;;2.53;100.00
55032;BME280;40928;51.076;7.950;2022-12-07T10:45:59;96914.69;;;2.56;100.00
55032;BME280;40928;51.076;7.950;2022-12-07T10:49:22;96910.28;;;2.41;100.00
55032;BME280;40928;51.076;7.950;2022-12-07T11:01:00;96900.50;;;2.13;100.00
55032;BME280;40928;51.076;7.950;2022-12-07T11:06:30;96890.97;;;2.12;100.00
55032;BME280;40928;51.076;7.950;2022-12-07T11:12:09;96896.91;;;2.21;100.00
55032;BME280;40928;51.076;7.950;2022-12-07T11:17:28;96890.06;;;2.27;100.00
55032;BME280;40928;51.076;7.950;2022-12-07T11:23:10;96874.88;;;2.51;100.00
55032;BME280;40928;51.076;7.950;2022-12-07T11:28:34;96876.13;;;2.83;100.00
55032;BME280;40928;51.076;7.950;2022-12-07T11:31:28;96870.44;;;3.15;100.00
55032;BME280;40928;51.076;7.950;2022-12-07T11:36:47;96863.94;;;3.17;100.00
55032;BME280;40928;51.076;7.950;2022-12-07T11:41:45;96865.88;;;3.37;100.00
55032;BME280;40928;51.076;7.950;2022-12-07T11:44:38;96860.19;;;3.33;100.00
55032;BME280;40928;51.076;7.950;2022-12-07T11:47:28;96855.47;;;3.35;100.00
55032;BME280;40928;51.076;7.950;2022-12-07T11:53:13;96840.88;;;3.33;100.00
55032;BME280;40928;51.076;7.950;2022-12-07T11:56:00;96848.41;;;3.36;100.00
55032;BME280;40928;51.076;7.950;2022-12-07T12:06:32;96850.50;;;3.61;100.00
55032;BME280;40928;51.076;7.950;2022-12-07T12:09:06;96859.84;;;3.57;100.00
55032;BME280;40928;51.076;7.950;2022-12-07T12:22:18;96838.88;;;3.00;100.00
55032;BME280;40928;51.076;7.950;2022-12-07T12:24:51;96834.53;;;2.85;100.00
55032;BME280;40928;51.076;7.950;2022-12-07T12:27:23;96845.50;;;2.89;100.00
55032;BME280;40928;51.076;7.950;2022-12-07T12:29:56;96832.94;;;2.91;100.00
55032;BME280;40928;51.076;7.950;2022-12-07T12:32:39;96834.94;;;2.82;100.00
55032;BME280;40928;51.076;7.950;2022-12-07T12:35:30;96837.38;;;2.84;100.00
55032;BME280;40928;51.076;7.950;2022-12-07T12:40:50;96835.75;;;2.83;100.00
55032;BME280;40928;51.076;7.950;2022-12-07T12:43:43;96833.84;;;2.70;100.00
55032;BME280;40928;51.076;7.950;2022-12-07T12:54:26;96832.56;;;2.31;100.00
55032;BME280;40928;51.076;7.950;2022-12-07T12:59:41;96828.97;;;2.38;100.00
55032;BME280;40928;51.076;7.950;2022-12-07T13:08:15;96817.84;;;2.43;100.00
55032;BME280;40928;51.076;7.950;2022-12-07T13:10:45;96815.91;;;2.52;100.00
55032;BME280;40928;51.076;7.950;2022-12-07T13:15:50;96810.66;;;2.58;100.00
55032;BME280;40928;51.076;7.950;2022-12-07T13:28:51;96809.69;;;2.66;100.00
55032;BME280;40928;51.076;7.950;2022-12-07T13:31:37;96802.94;;;2.57;100.00
55032;BME280;40928;51.076;7.950;2022-12-07T13:34:05;96805.56;;;2.57;100.00
55032;BME280;40928;51.076;7.950;2022-12-07T13:36:44;96803.59;;;2.66;100.00
55032;BME280;40928;51.076;7.950;2022-12-07T13:39:24;96797.28;;;2.60;100.00
55032;BME280;40928;51.076;7.950;2022-12-07T13:41:56;96792.59;;;2.55;100.00
55032;BME280;40928;51.076;7.950;2022-12-07T13:44:24;96793.13;;;2.44;100.00
55032;BME280;40928;51.076;7.950;2022-12-07T13:49:53;96791.28;;;2.44;100.00
55032;BME280;40928;51.076;7.950;2022-12-07T13:52:25;96787.88;;;2.44;100.00
55032;BME280;40928;51.076;7.950;2022-12-07T13:57:33;96784.63;;;2.49;100.00
55032;BME280;40928;51.076;7.950;2022-12-07T14:00:03;96777.41;;;2.57;100.00
55032;BME280;40928;51.076;7.950;2022-12-07T14:02:32;96779.00;;;2.52;100.00
55032;BME280;40928;51.076;7.950;2022-12-07T14:05:24;96780.78;;;2.51;100.00
55032;BME280;40928;51.076;7.950;2022-12-07T14:07:57;96779.63;;;2.54;100.00
55032;BME280;40928;51.076;7.950;2022-12-07T14:12:58;96783.63;;;2.50;100.00
55032;BME280;40928;51.076;7.950;2022-12-07T14:15:28;96780.38;;;2.48;100.00
55032;BME280;40928;51.076;7.950;2022-12-07T14:17:55;96773.47;;;2.47;100.00
55032;BME280;40928;51.076;7.950;2022-12-07T14:20:34;96778.75;;;2.47;100.00
55032;BME280;40928;51.076;7.950;2022-12-07T14:23:00;96773.84;;;2.43;100.00
55032;BME280;40928;51.076;7.950;2022-12-07T14:25:45;96774.06;;;2.42;100.00
55032;BME280;40928;51.076;7.950;2022-12-07T14:28:28;96769.16;;;2.39;100.00
55032;BME280;40928;51.076;7.950;2022-12-07T14:30:54;96765.50;;;2.33;100.00
55032;BME280;40928;51.076;7.950;2022-12-07T14:33:21;96752.56;;;2.38;100.00
55032;BME280;40928;51.076;7.950;2022-12-07T14:35:47;96757.81;;;2.38;100.00
55032;BME280;40928;51.076;7.950;2022-12-07T14:38:12;96756.19;;;2.37;100.00
55032;BME280;40928;51.076;7.950;2022-12-07T14:40:38;96748.72;;;2.41;100.00
55032;BME280;40928;51.076;7.950;2022-12-07T14:43:08;96758.63;;;2.39;100.00
55032;BME280;40928;51.076;7.950;2022-12-07T14:45:35;96757.41;;;2.41;100.00
55032;BME280;40928;51.076;7.950;2022-12-07T14:48:01;96752.16;;;2.41;100.00
55032;BME280;40928;51.076;7.950;2022-12-07T14:50:26;96755.41;;;2.43;100.00
55032;BME280;40928;51.076;7.950;2022-12-07T14:52:55;96755.63;;;2.42;100.00
55032;BME280;40928;51.076;7.950;2022-12-07T14:55:30;96757.25;;;2.43;100.00
55032;BME280;40928;51.076;7.950;2022-12-07T14:57:58;96756.63;;;2.41;100.00
55032;BME280;40928;51.076;7.950;2022-12-07T15:00:25;96758.63;;;2.39;100.00
55032;BME280;40928;51.076;7.950;2022-12-07T15:02:51;96753.75;;;2.36;100.00
55032;BME280;40928;51.076;7.950;2022-12-07T15:05:17;96754.38;;;2.38;100.00
55032;BME280;40928;51.076;7.950;2022-12-07T15:07:43;96745.28;;;2.40;100.00
55032;BME280;40928;51.076;7.950;2022-12-07T15:10:18;96741.59;;;2.41;100.00
55032;BME280;40928;51.076;7.950;2022-12-07T15:12:45;96744.25;;;2.41;100.00
55032;BME280;40928;51.076;7.950;2022-12-07T15:15:10;96743.81;;;2.38;100.00
55032;BME280;40928;51.076;7.950;2022-12-07T15:17:36;96740.81;;;2.41;100.00
55032;BME280;40928;51.076;7.950;2022-12-07T15:20:02;96742.44;;;2.42;100.00
55032;BME280;40928;51.076;7.950;2022-12-07T15:22:28;96738.97;;;2.41;100.00
55032;BME280;40928;51.076;7.950;2022-12-07T15:24:57;96737.38;;;2.40;100.00
55032;BME280;40928;51.076;7.950;2022-12-07T15:27:22;96735.53;;;2.41;100.00